sensor_id;sensor_type;location;lat;lon;timestamp;P1;durP1;ratioP1;P2;durP2;ratioP2
77866;SDS011;67271;59.120;37.970;2023-04-28T00:05:19;2.45;;;1.77;;
77866;SDS011;67271;59.120;37.970;2023-04-28T00:07:47;4.32;;;2.33;;
77866;SDS011;67271;59.120;37.970;2023-04-28T00:10:13;3.00;;;1.95;;
77866;SDS011;67271;59.120;37.970;2023-04-28T00:12:39;2.50;;;1.90;;
77866;SDS011;67271;59.120;37.970;2023-04-28T00:15:05;2.60;;;1.90;;
77866;SDS011;67271;59.120;37.970;2023-04-28T00:17:32;3.75;;;2.33;;
77866;SDS011;67271;59.120;37.970;2023-04-28T00:19:58;2.90;;;2.05;;
77866;SDS011;67271;59.120;37.970;2023-04-28T00:22:24;3.47;;;1.92;;
77866;SDS011;67271;59.120;37.970;2023-04-28T00:24:50;2.80;;;2.17;;
77866;SDS011;67271;59.120;37.970;2023-04-28T00:27:16;3.45;;;1.88;;
77866;SDS011;67271;59.120;37.970;2023-04-28T00:29:41;2.15;;;1.95;;
77866;SDS011;67271;59.120;37.970;2023-04-28T00:32:07;2.25;;;1.58;;
77866;SDS011;67271;59.120;37.970;2023-04-28T00:34:33;3.40;;;1.55;;
77866;SDS011;67271;59.120;37.970;2023-04-28T00:37:02;1.35;;;1.10;;
77866;SDS011;67271;59.120;37.970;2023-04-28T00:39:28;2.53;;;1.92;;
77866;SDS011;67271;59.120;37.970;2023-04-28T00:41:54;2.28;;;1.65;;
77866;SDS011;67271;59.120;37.970;2023-04-28T00:44:20;2.20;;;1.83;;
77866;SDS011;67271;59.120;37.970;2023-04-28T00:46:46;2.75;;;1.80;;
77866;SDS011;67271;59.120;37.970;2023-04-28T00:49:12;2.85;;;2.10;;
77866;SDS011;67271;59.120;37.970;2023-04-28T00:51:40;3.40;;;2.00;;
77866;SDS011;67271;59.120;37.970;2023-04-28T00:54:06;2.05;;;1.80;;
77866;SDS011;67271;59.120;37.970;2023-04-28T00:56:32;3.00;;;2.10;;
77866;SDS011;67271;59.120;37.970;2023-04-28T00:58:58;2.10;;;1.90;;
77866;SDS011;67271;59.120;37.970;2023-04-28T01:01:24;2.50;;;2.00;;
77866;SDS011;67271;59.120;37.970;2023-04-28T01:03:50;3.35;;;1.90;;
77866;SDS011;67271;59.120;37.970;2023-04-28T01:06:17;4.15;;;1.90;;
77866;SDS011;67271;59.120;37.970;2023-04-28T01:08:48;2.20;;;1.90;;
77866;SDS011;67271;59.120;37.970;2023-04-28T01:11:16;3.05;;;1.90;;
77866;SDS011;67271;59.120;37.970;2023-04-28T01:14:00;2.33;;;1.75;;
77866;SDS011;67271;59.120;37.970;2023-04-28T01:16:30;3.03;;;2.08;;
77866;SDS011;67271;59.120;37.970;2023-04-28T01:19:01;3.97;;;1.98;;
77866;SDS011;67271;59.120;37.970;2023-04-28T01:21:32;5.35;;;1.98;;
77866;SDS011;67271;59.120;37.970;2023-04-28T01:24:18;2.22;;;1.80;;
77866;SDS011;67271;59.120;37.970;2023-04-28T01:26:44;1.55;;;1.25;;
77866;SDS011;67271;59.120;37.970;2023-04-28T01:29:11;4.13;;;2.00;;
77866;SDS011;67271;59.120;37.970;2023-04-28T01:31:36;3.05;;;1.88;;
77866;SDS011;67271;59.120;37.970;2023-04-28T01:34:02;2.78;;;1.70;;
77866;SDS011;67271;59.120;37.970;2023-04-28T01:36:28;2.42;;;1.67;;
77866;SDS011;67271;59.120;37.970;2023-04-28T01:38:55;2.42;;;1.67;;
77866;SDS011;67271;59.120;37.970;2023-04-28T01:41:21;1.95;;;1.63;;
77866;SDS011;67271;59.120;37.970;2023-04-28T01:43:47;1.50;;;1.40;;
77866;SDS011;67271;59.120;37.970;2023-04-28T01:46:13;2.30;;;1.83;;
77866;SDS011;67271;59.120;37.970;2023-04-28T01:48:39;3.60;;;2.00;;
77866;SDS011;67271;59.120;37.970;2023-04-28T01:51:05;5.90;;;1.70;;
77866;SDS011;67271;59.120;37.970;2023-04-28T01:53:31;1.88;;;1.60;;
77866;SDS011;67271;59.120;37.970;2023-04-28T01:55:57;2.20;;;1.70;;
77866;SDS011;67271;59.120;37.970;2023-04-28T01:58:23;2.78;;;1.80;;
77866;SDS011;67271;59.120;37.970;2023-04-28T02:00:49;1.90;;;1.63;;
77866;SDS011;67271;59.120;37.970;2023-04-28T02:03:18;3.10;;;2.03;;
77866;SDS011;67271;59.120;37.970;2023-04-28T02:05:44;1.58;;;1.48;;
77866;SDS011;67271;59.120;37.970;2023-04-28T02:08:10;6.43;;;2.33;;
77866;SDS011;67271;59.120;37.970;2023-04-28T02:10:36;1.90;;;1.25;;
77866;SDS011;67271;59.120;37.970;2023-04-28T02:13:02;3.15;;;1.60;;
77866;SDS011;67271;59.120;37.970;2023-04-28T02:15:28;2.30;;;1.38;;
77866;SDS011;67271;59.120;37.970;2023-04-28T02:17:54;3.05;;;2.13;;
77866;SDS011;67271;59.120;37.970;2023-04-28T02:20:20;2.60;;;1.92;;
77866;SDS011;67271;59.120;37.970;2023-04-28T02:22:47;2.30;;;1.83;;
77866;SDS011;67271;59.120;37.970;2023-04-28T02:25:13;1.40;;;1.30;;
77866;SDS011;67271;59.120;37.970;2023-04-28T02:27:39;4.68;;;1.77;;
77866;SDS011;67271;59.120;37.970;2023-04-28T02:30:05;14.60;;;6.90;;
77866;SDS011;67271;59.120;37.970;2023-04-28T02:32:31;3.60;;;2.15;;
77866;SDS011;67271;59.120;37.970;2023-04-28T02:34:57;2.10;;;1.75;;
77866;SDS011;67271;59.120;37.970;2023-04-28T02:37:24;4.55;;;2.45;;
77866;SDS011;67271;59.120;37.970;2023-04-28T02:39:50;1.58;;;1.35;;
77866;SDS011;67271;59.120;37.970;2023-04-28T02:42:16;4.25;;;2.13;;
77866;SDS011;67271;59.120;37.970;2023-04-28T02:44:42;2.35;;;1.80;;
77866;SDS011;67271;59.120;37.970;2023-04-28T02:47:08;2.95;;;2.00;;
77866;SDS011;67271;59.120;37.970;2023-04-28T02:49:34;1.88;;;1.75;;
77866;SDS011;67271;59.120;37.970;2023-04-28T02:52:00;2.92;;;1.85;;
77866;SDS011;67271;59.120;37.970;2023-04-28T02:54:26;13.40;;;1.65;;
77866;SDS011;67271;59.120;37.970;2023-04-28T02:56:53;1.35;;;1.20;;
77866;SDS011;67271;59.120;37.970;2023-04-28T02:59:20;2.85;;;1.83;;
77866;SDS011;67271;59.120;37.970;2023-04-28T03:01:46;3.08;;;1.85;;
77866;SDS011;67271;59.120;37.970;2023-04-28T03:04:12;4.55;;;2.55;;
77866;SDS011;67271;59.120;37.970;2023-04-28T03:06:39;4.70;;;2.00;;
77866;SDS011;67271;59.120;37.970;2023-04-28T03:09:06;4.95;;;2.78;;
77866;SDS011;67271;59.120;37.970;2023-04-28T03:11:33;3.22;;;1.88;;
77866;SDS011;67271;59.120;37.970;2023-04-28T03:13:59;7.43;;;2.10;;
77866;SDS011;67271;59.120;37.970;2023-04-28T03:16:25;3.10;;;2.03;;
77866;SDS011;67271;59.120;37.970;2023-04-28T03:18:52;2.55;;;1.85;;
77866;SDS011;67271;59.120;37.970;2023-04-28T03:21:18;2.47;;;1.67;;
77866;SDS011;67271;59.120;37.970;2023-04-28T03:23:44;3.38;;;2.13;;
77866;SDS011;67271;59.120;37.970;2023-04-28T03:26:11;2.85;;;1.88;;
77866;SDS011;67271;59.120;37.970;2023-04-28T03:28:37;4.13;;;2.40;;
77866;SDS011;67271;59.120;37.970;2023-04-28T03:31:03;2.55;;;2.03;;
77866;SDS011;67271;59.120;37.970;2023-04-28T03:33:29;4.78;;;2.58;;
77866;SDS011;67271;59.120;37.970;2023-04-28T03:35:56;3.80;;;2.45;;
77866;SDS011;67271;59.120;37.970;2023-04-28T03:38:22;2.60;;;1.90;;
77866;SDS011;67271;59.120;37.970;2023-04-28T03:40:48;5.38;;;2.17;;
77866;SDS011;67271;59.120;37.970;2023-04-28T03:43:40;2.97;;;1.95;;
77866;SDS011;67271;59.120;37.970;2023-04-28T03:46:26;4.30;;;2.20;;
77866;SDS011;67271;59.120;37.970;2023-04-28T03:48:53;5.63;;;2.20;;
77866;SDS011;67271;59.120;37.970;2023-04-28T03:51:19;2.45;;;1.70;;
77866;SDS011;67271;59.120;37.970;2023-04-28T03:53:46;2.20;;;1.60;;
77866;SDS011;67271;59.120;37.970;2023-04-28T03:56:12;3.15;;;1.88;;
77866;SDS011;67271;59.120;37.970;2023-04-28T03:58:38;2.53;;;2.03;;
77866;SDS011;67271;59.120;37.970;2023-04-28T04:01:04;4.95;;;2.17;;
77866;SDS011;67271;59.120;37.970;2023-04-28T04:03:30;2.78;;;2.10;;
77866;SDS011;67271;59.120;37.970;2023-04-28T04:05:55;3.22;;;2.28;;
77866;SDS011;67271;59.120;37.970;2023-04-28T04:08:22;3.80;;;2.92;;
77866;SDS011;67271;59.120;37.970;2023-04-28T04:10:48;4.25;;;2.17;;
77866;SDS011;67271;59.120;37.970;2023-04-28T04:13:14;2.92;;;1.80;;
77866;SDS011;67271;59.120;37.970;2023-04-28T04:15:42;2.67;;;1.90;;
77866;SDS011;67271;59.120;37.970;2023-04-28T04:18:08;5.72;;;2.30;;
77866;SDS011;67271;59.120;37.970;2023-04-28T04:20:54;4.45;;;2.40;;
77866;SDS011;67271;59.120;37.970;2023-04-28T04:23:22;3.70;;;2.05;;
77866;SDS011;67271;59.120;37.970;2023-04-28T04:25:48;3.17;;;2.10;;
77866;SDS011;67271;59.120;37.970;2023-04-28T04:28:14;4.20;;;2.38;;
77866;SDS011;67271;59.120;37.970;2023-04-28T04:30:41;4.65;;;2.70;;
77866;SDS011;67271;59.120;37.970;2023-04-28T04:33:08;5.50;;;2.22;;
77866;SDS011;67271;59.120;37.970;2023-04-28T04:35:34;4.78;;;2.15;;
77866;SDS011;67271;59.120;37.970;2023-04-28T04:38:01;3.83;;;2.05;;
77866;SDS011;67271;59.120;37.970;2023-04-28T04:40:28;3.80;;;2.50;;
77866;SDS011;67271;59.120;37.970;2023-04-28T04:42:54;2.75;;;2.25;;
77866;SDS011;67271;59.120;37.970;2023-04-28T04:45:22;4.80;;;2.03;;
77866;SDS011;67271;59.120;37.970;2023-04-28T04:47:49;3.45;;;2.35;;
77866;SDS011;67271;59.120;37.970;2023-04-28T04:50:17;4.90;;;2.17;;
77866;SDS011;67271;59.120;37.970;2023-04-28T04:52:43;3.13;;;2.20;;
77866;SDS011;67271;59.120;37.970;2023-04-28T04:55:11;8.48;;;2.38;;
77866;SDS011;67271;59.120;37.970;2023-04-28T04:57:39;3.72;;;2.15;;
77866;SDS011;67271;59.120;37.970;2023-04-28T05:00:05;3.88;;;2.28;;
77866;SDS011;67271;59.120;37.970;2023-04-28T05:02:32;6.22;;;2.53;;
77866;SDS011;67271;59.120;37.970;2023-04-28T05:04:59;2.22;;;1.80;;
77866;SDS011;67271;59.120;37.970;2023-04-28T05:07:26;3.13;;;2.30;;
77866;SDS011;67271;59.120;37.970;2023-04-28T05:09:52;5.60;;;2.10;;
77866;SDS011;67271;59.120;37.970;2023-04-28T05:12:18;4.90;;;1.92;;
77866;SDS011;67271;59.120;37.970;2023-04-28T05:14:47;3.58;;;2.42;;
77866;SDS011;67271;59.120;37.970;2023-04-28T05:17:14;4.75;;;2.17;;
77866;SDS011;67271;59.120;37.970;2023-04-28T05:19:41;5.25;;;2.13;;
77866;SDS011;67271;59.120;37.970;2023-04-28T05:22:07;3.58;;;2.20;;
77866;SDS011;67271;59.120;37.970;2023-04-28T05:24:35;2.75;;;2.17;;
77866;SDS011;67271;59.120;37.970;2023-04-28T05:27:02;9.45;;;2.97;;
77866;SDS011;67271;59.120;37.970;2023-04-28T05:29:28;5.57;;;2.45;;
77866;SDS011;67271;59.120;37.970;2023-04-28T05:31:54;3.13;;;2.03;;
77866;SDS011;67271;59.120;37.970;2023-04-28T05:34:22;3.38;;;2.00;;
77866;SDS011;67271;59.120;37.970;2023-04-28T05:36:48;7.63;;;2.35;;
77866;SDS011;67271;59.120;37.970;2023-04-28T05:39:14;4.53;;;2.45;;
77866;SDS011;67271;59.120;37.970;2023-04-28T05:41:40;3.83;;;2.20;;
77866;SDS011;67271;59.120;37.970;2023-04-28T05:44:07;2.67;;;2.05;;
77866;SDS011;67271;59.120;37.970;2023-04-28T05:46:33;5.57;;;2.17;;
77866;SDS011;67271;59.120;37.970;2023-04-28T05:48:59;3.25;;;2.10;;
77866;SDS011;67271;59.120;37.970;2023-04-28T05:51:29;4.10;;;2.63;;
77866;SDS011;67271;59.120;37.970;2023-04-28T05:53:55;2.75;;;1.90;;
77866;SDS011;67271;59.120;37.970;2023-04-28T05:56:21;3.15;;;2.30;;
77866;SDS011;67271;59.120;37.970;2023-04-28T05:58:48;3.70;;;2.20;;
77866;SDS011;67271;59.120;37.970;2023-04-28T06:01:15;2.50;;;1.90;;
77866;SDS011;67271;59.120;37.970;2023-04-28T06:03:41;3.58;;;1.98;;
77866;SDS011;67271;59.120;37.970;2023-04-28T06:06:08;3.35;;;2.25;;
77866;SDS011;67271;59.120;37.970;2023-04-28T06:08:36;4.82;;;2.28;;
77866;SDS011;67271;59.120;37.970;2023-04-28T06:11:03;5.97;;;2.40;;
77866;SDS011;67271;59.120;37.970;2023-04-28T06:13:31;6.70;;;2.72;;
77866;SDS011;67271;59.120;37.970;2023-04-28T06:15:57;4.10;;;2.20;;
77866;SDS011;67271;59.120;37.970;2023-04-28T06:18:23;3.17;;;2.10;;
77866;SDS011;67271;59.120;37.970;2023-04-28T06:20:53;8.85;;;2.53;;
77866;SDS011;67271;59.120;37.970;2023-04-28T06:23:21;4.10;;;2.22;;
77866;SDS011;67271;59.120;37.970;2023-04-28T06:25:49;4.03;;;2.40;;
77866;SDS011;67271;59.120;37.970;2023-04-28T06:28:15;2.90;;;2.28;;
77866;SDS011;67271;59.120;37.970;2023-04-28T06:30:41;2.70;;;1.90;;
77866;SDS011;67271;59.120;37.970;2023-04-28T06:33:10;2.83;;;2.10;;
77866;SDS011;67271;59.120;37.970;2023-04-28T06:35:37;3.25;;;2.40;;
77866;SDS011;67271;59.120;37.970;2023-04-28T06:38:04;6.32;;;2.53;;
77866;SDS011;67271;59.120;37.970;2023-04-28T06:40:31;3.53;;;2.08;;
77866;SDS011;67271;59.120;37.970;2023-04-28T06:42:58;11.77;;;4.57;;
77866;SDS011;67271;59.120;37.970;2023-04-28T06:45:36;4.95;;;3.30;;
77866;SDS011;67271;59.120;37.970;2023-04-28T06:48:02;4.05;;;2.33;;
77866;SDS011;67271;59.120;37.970;2023-04-28T06:50:28;3.35;;;2.30;;
77866;SDS011;67271;59.120;37.970;2023-04-28T06:52:54;5.30;;;1.90;;
77866;SDS011;67271;59.120;37.970;2023-04-28T06:55:20;2.88;;;1.80;;
77866;SDS011;67271;59.120;37.970;2023-04-28T06:57:46;3.05;;;2.08;;
77866;SDS011;67271;59.120;37.970;2023-04-28T07:00:12;2.55;;;2.28;;
77866;SDS011;67271;59.120;37.970;2023-04-28T07:02:38;4.05;;;2.45;;
77866;SDS011;67271;59.120;37.970;2023-04-28T07:05:04;2.83;;;2.15;;
77866;SDS011;67271;59.120;37.970;2023-04-28T07:07:31;6.70;;;2.50;;
77866;SDS011;67271;59.120;37.970;2023-04-28T07:09:57;2.13;;;1.75;;
77866;SDS011;67271;59.120;37.970;2023-04-28T07:12:23;4.70;;;1.90;;
77866;SDS011;67271;59.120;37.970;2023-04-28T07:14:49;3.47;;;2.42;;
77866;SDS011;67271;59.120;37.970;2023-04-28T07:17:16;2.63;;;2.03;;
77866;SDS011;67271;59.120;37.970;2023-04-28T07:19:41;3.47;;;2.25;;
77866;SDS011;67271;59.120;37.970;2023-04-28T07:22:07;6.28;;;3.67;;
77866;SDS011;67271;59.120;37.970;2023-04-28T07:24:33;15.45;;;2.50;;
77866;SDS011;67271;59.120;37.970;2023-04-28T07:26:59;3.70;;;1.90;;
77866;SDS011;67271;59.120;37.970;2023-04-28T07:29:26;5.28;;;2.25;;
77866;SDS011;67271;59.120;37.970;2023-04-28T07:31:58;2.83;;;2.20;;
77866;SDS011;67271;59.120;37.970;2023-04-28T07:34:25;2.90;;;2.05;;
77866;SDS011;67271;59.120;37.970;2023-04-28T07:36:52;6.65;;;2.50;;
77866;SDS011;67271;59.120;37.970;2023-04-28T07:39:18;4.65;;;2.17;;
77866;SDS011;67271;59.120;37.970;2023-04-28T07:41:44;3.20;;;2.20;;
77866;SDS011;67271;59.120;37.970;2023-04-28T07:44:09;3.38;;;2.05;;
77866;SDS011;67271;59.120;37.970;2023-04-28T07:46:35;3.30;;;2.20;;
77866;SDS011;67271;59.120;37.970;2023-04-28T07:49:02;2.70;;;2.22;;
77866;SDS011;67271;59.120;37.970;2023-04-28T07:51:29;2.55;;;1.90;;
77866;SDS011;67271;59.120;37.970;2023-04-28T07:53:55;3.53;;;2.47;;
77866;SDS011;67271;59.120;37.970;2023-04-28T07:56:21;4.40;;;2.17;;
77866;SDS011;67271;59.120;37.970;2023-04-28T07:58:47;2.97;;;2.20;;
77866;SDS011;67271;59.120;37.970;2023-04-28T08:01:13;6.82;;;2.35;;
77866;SDS011;67271;59.120;37.970;2023-04-28T08:03:39;3.90;;;2.30;;
77866;SDS011;67271;59.120;37.970;2023-04-28T08:06:06;3.47;;;2.22;;
77866;SDS011;67271;59.120;37.970;2023-04-28T08:08:32;5.28;;;2.58;;
77866;SDS011;67271;59.120;37.970;2023-04-28T08:10:59;3.90;;;2.45;;
77866;SDS011;67271;59.120;37.970;2023-04-28T08:13:26;3.38;;;2.20;;
77866;SDS011;67271;59.120;37.970;2023-04-28T08:15:54;3.35;;;2.53;;
77866;SDS011;67271;59.120;37.970;2023-04-28T08:18:21;4.15;;;2.42;;
77866;SDS011;67271;59.120;37.970;2023-04-28T08:20:48;4.43;;;2.70;;
77866;SDS011;67271;59.120;37.970;2023-04-28T08:23:13;7.25;;;2.97;;
77866;SDS011;67271;59.120;37.970;2023-04-28T08:25:40;3.58;;;2.35;;
77866;SDS011;67271;59.120;37.970;2023-04-28T08:28:06;3.05;;;2.50;;
77866;SDS011;67271;59.120;37.970;2023-04-28T08:30:33;2.25;;;1.85;;
77866;SDS011;67271;59.120;37.970;2023-04-28T08:32:59;6.68;;;2.47;;
77866;SDS011;67271;59.120;37.970;2023-04-28T08:35:25;2.60;;;1.92;;
77866;SDS011;67271;59.120;37.970;2023-04-28T08:37:51;8.98;;;2.92;;
77866;SDS011;67271;59.120;37.970;2023-04-28T08:40:17;4.15;;;2.22;;
77866;SDS011;67271;59.120;37.970;2023-04-28T08:42:43;3.53;;;2.60;;
77866;SDS011;67271;59.120;37.970;2023-04-28T08:45:13;4.70;;;2.67;;
77866;SDS011;67271;59.120;37.970;2023-04-28T08:47:39;3.80;;;2.63;;
77866;SDS011;67271;59.120;37.970;2023-04-28T08:50:10;23.08;;;2.85;;
77866;SDS011;67271;59.120;37.970;2023-04-28T08:52:40;4.32;;;2.72;;
77866;SDS011;67271;59.120;37.970;2023-04-28T08:55:08;4.57;;;2.20;;
77866;SDS011;67271;59.120;37.970;2023-04-28T09:00:30;8.20;;;2.55;;
77866;SDS011;67271;59.120;37.970;2023-04-28T09:02:56;4.15;;;2.25;;
77866;SDS011;67271;59.120;37.970;2023-04-28T09:05:22;3.58;;;2.58;;
77866;SDS011;67271;59.120;37.970;2023-04-28T09:07:49;5.97;;;2.60;;
77866;SDS011;67271;59.120;37.970;2023-04-28T09:10:17;6.43;;;2.58;;
77866;SDS011;67271;59.120;37.970;2023-04-28T09:12:50;3.20;;;2.30;;
77866;SDS011;67271;59.120;37.970;2023-04-28T09:15:26;3.17;;;2.25;;
77866;SDS011;67271;59.120;37.970;2023-04-28T09:17:57;7.10;;;2.40;;
77866;SDS011;67271;59.120;37.970;2023-04-28T09:20:24;3.80;;;2.28;;
77866;SDS011;67271;59.120;37.970;2023-04-28T09:22:51;4.95;;;2.85;;
77866;SDS011;67271;59.120;37.970;2023-04-28T09:25:19;2.92;;;2.13;;
77866;SDS011;67271;59.120;37.970;2023-04-28T09:27:48;5.13;;;3.00;;
77866;SDS011;67271;59.120;37.970;2023-04-28T09:30:15;3.28;;;2.35;;
77866;SDS011;67271;59.120;37.970;2023-04-28T09:32:41;2.83;;;2.30;;
77866;SDS011;67271;59.120;37.970;2023-04-28T09:35:08;4.97;;;2.50;;
77866;SDS011;67271;59.120;37.970;2023-04-28T09:37:34;8.50;;;2.80;;
77866;SDS011;67271;59.120;37.970;2023-04-28T09:40:07;7.68;;;3.40;;
77866;SDS011;67271;59.120;37.970;2023-04-28T09:42:42;2.78;;;2.17;;
77866;SDS011;67271;59.120;37.970;2023-04-28T09:45:11;3.72;;;2.70;;
77866;SDS011;67271;59.120;37.970;2023-04-28T09:47:41;11.68;;;3.10;;
77866;SDS011;67271;59.120;37.970;2023-04-28T09:50:11;4.07;;;2.63;;
77866;SDS011;67271;59.120;37.970;2023-04-28T09:52:42;2.97;;;2.30;;
77866;SDS011;67271;59.120;37.970;2023-04-28T09:55:10;9.45;;;2.58;;
77866;SDS011;67271;59.120;37.970;2023-04-28T09:57:38;4.50;;;2.78;;
77866;SDS011;67271;59.120;37.970;2023-04-28T10:00:05;3.70;;;2.72;;
77866;SDS011;67271;59.120;37.970;2023-04-28T10:02:34;4.32;;;3.05;;
77866;SDS011;67271;59.120;37.970;2023-04-28T10:05:01;5.80;;;2.25;;
77866;SDS011;67271;59.120;37.970;2023-04-28T10:07:32;3.33;;;2.40;;
77866;SDS011;67271;59.120;37.970;2023-04-28T10:10:00;8.15;;;2.67;;
77866;SDS011;67271;59.120;37.970;2023-04-28T10:12:26;6.03;;;2.70;;
77866;SDS011;67271;59.120;37.970;2023-04-28T10:14:52;3.45;;;2.25;;
77866;SDS011;67271;59.120;37.970;2023-04-28T10:17:19;5.35;;;2.80;;
77866;SDS011;67271;59.120;37.970;2023-04-28T10:19:47;6.35;;;2.65;;
77866;SDS011;67271;59.120;37.970;2023-04-28T10:25:25;5.20;;;3.03;;
77866;SDS011;67271;59.120;37.970;2023-04-28T10:27:54;3.35;;;2.45;;
77866;SDS011;67271;59.120;37.970;2023-04-28T10:30:22;3.47;;;2.53;;
77866;SDS011;67271;59.120;37.970;2023-04-28T10:35:43;3.20;;;2.40;;
77866;SDS011;67271;59.120;37.970;2023-04-28T10:38:18;8.20;;;3.03;;
77866;SDS011;67271;59.120;37.970;2023-04-28T10:40:48;2.95;;;2.17;;
77866;SDS011;67271;59.120;37.970;2023-04-28T10:56:17;2.60;;;2.10;;
77866;SDS011;67271;59.120;37.970;2023-04-28T10:58:44;3.17;;;1.98;;
77866;SDS011;67271;59.120;37.970;2023-04-28T11:06:23;3.83;;;2.60;;
77866;SDS011;67271;59.120;37.970;2023-04-28T11:08:58;4.25;;;2.67;;
77866;SDS011;67271;59.120;37.970;2023-04-28T11:11:31;3.35;;;2.60;;
77866;SDS011;67271;59.120;37.970;2023-04-28T11:16:55;7.85;;;5.13;;
77866;SDS011;67271;59.120;37.970;2023-04-28T11:19:29;5.05;;;2.92;;
77866;SDS011;67271;59.120;37.970;2023-04-28T11:21:56;4.57;;;3.00;;
77866;SDS011;67271;59.120;37.970;2023-04-28T11:24:23;6.20;;;2.83;;
77866;SDS011;67271;59.120;37.970;2023-04-28T11:26:53;3.08;;;2.50;;
77866;SDS011;67271;59.120;37.970;2023-04-28T11:29:32;4.65;;;2.85;;
77866;SDS011;67271;59.120;37.970;2023-04-28T11:32:02;3.58;;;2.67;;
77866;SDS011;67271;59.120;37.970;2023-04-28T11:34:30;4.28;;;2.90;;
77866;SDS011;67271;59.120;37.970;2023-04-28T11:36:56;5.47;;;2.97;;
77866;SDS011;67271;59.120;37.970;2023-04-28T11:39:31;15.70;;;3.03;;
77866;SDS011;67271;59.120;37.970;2023-04-28T11:41:59;6.18;;;2.80;;
77866;SDS011;67271;59.120;37.970;2023-04-28T11:44:27;7.55;;;2.65;;
77866;SDS011;67271;59.120;37.970;2023-04-28T11:46:55;8.07;;;2.67;;
77866;SDS011;67271;59.120;37.970;2023-04-28T11:49:25;5.18;;;2.60;;
77866;SDS011;67271;59.120;37.970;2023-04-28T11:51:55;4.10;;;2.60;;
77866;SDS011;67271;59.120;37.970;2023-04-28T11:54:27;4.05;;;3.03;;
77866;SDS011;67271;59.120;37.970;2023-04-28T11:56:53;5.22;;;2.80;;
77866;SDS011;67271;59.120;37.970;2023-04-28T11:59:24;4.57;;;2.75;;
77866;SDS011;67271;59.120;37.970;2023-04-28T12:01:59;11.07;;;2.95;;
77866;SDS011;67271;59.120;37.970;2023-04-28T12:07:09;4.10;;;2.70;;
77866;SDS011;67271;59.120;37.970;2023-04-28T12:09:46;8.90;;;2.65;;
77866;SDS011;67271;59.120;37.970;2023-04-28T12:12:32;8.63;;;3.33;;
77866;SDS011;67271;59.120;37.970;2023-04-28T12:17:41;8.10;;;3.40;;
77866;SDS011;67271;59.120;37.970;2023-04-28T12:20:08;4.38;;;2.80;;
77866;SDS011;67271;59.120;37.970;2023-04-28T12:22:47;8.38;;;3.65;;
77866;SDS011;67271;59.120;37.970;2023-04-28T12:25:14;4.85;;;3.35;;
77866;SDS011;67271;59.120;37.970;2023-04-28T12:27:57;6.93;;;4.40;;
77866;SDS011;67271;59.120;37.970;2023-04-28T12:30:30;6.40;;;3.22;;
77866;SDS011;67271;59.120;37.970;2023-04-28T12:32:58;11.57;;;4.20;;
77866;SDS011;67271;59.120;37.970;2023-04-28T12:35:24;13.80;;;5.88;;
77866;SDS011;67271;59.120;37.970;2023-04-28T12:37:51;10.00;;;5.57;;
77866;SDS011;67271;59.120;37.970;2023-04-28T12:40:18;8.57;;;5.25;;
77866;SDS011;67271;59.120;37.970;2023-04-28T12:42:44;9.88;;;6.35;;
77866;SDS011;67271;59.120;37.970;2023-04-28T12:45:10;8.52;;;5.30;;
77866;SDS011;67271;59.120;37.970;2023-04-28T12:47:36;8.10;;;5.53;;
77866;SDS011;67271;59.120;37.970;2023-04-28T12:50:06;9.27;;;5.25;;
77866;SDS011;67271;59.120;37.970;2023-04-28T12:52:32;7.45;;;5.55;;
77866;SDS011;67271;59.120;37.970;2023-04-28T12:55:00;11.75;;;6.00;;
77866;SDS011;67271;59.120;37.970;2023-04-28T12:57:26;9.52;;;5.45;;
77866;SDS011;67271;59.120;37.970;2023-04-28T12:59:53;9.20;;;6.50;;
77866;SDS011;67271;59.120;37.970;2023-04-28T13:02:23;14.48;;;5.80;;
77866;SDS011;67271;59.120;37.970;2023-04-28T13:04:49;9.48;;;5.75;;
77866;SDS011;67271;59.120;37.970;2023-04-28T13:07:19;11.50;;;6.25;;
77866;SDS011;67271;59.120;37.970;2023-04-28T13:09:46;9.68;;;6.45;;
77866;SDS011;67271;59.120;37.970;2023-04-28T13:12:12;10.20;;;5.53;;
77866;SDS011;67271;59.120;37.970;2023-04-28T13:14:38;8.15;;;5.53;;
77866;SDS011;67271;59.120;37.970;2023-04-28T13:17:03;9.00;;;5.88;;
77866;SDS011;67271;59.120;37.970;2023-04-28T13:19:29;9.23;;;5.78;;
77866;SDS011;67271;59.120;37.970;2023-04-28T13:21:57;8.52;;;5.85;;
77866;SDS011;67271;59.120;37.970;2023-04-28T13:24:22;8.25;;;5.43;;
77866;SDS011;67271;59.120;37.970;2023-04-28T13:26:48;10.20;;;5.07;;
77866;SDS011;67271;59.120;37.970;2023-04-28T13:29:15;11.38;;;5.88;;
77866;SDS011;67271;59.120;37.970;2023-04-28T13:31:42;11.23;;;6.20;;
77866;SDS011;67271;59.120;37.970;2023-04-28T13:34:08;12.07;;;5.53;;
77866;SDS011;67271;59.120;37.970;2023-04-28T13:36:40;8.15;;;5.75;;
77866;SDS011;67271;59.120;37.970;2023-04-28T13:39:07;9.65;;;5.20;;
77866;SDS011;67271;59.120;37.970;2023-04-28T13:41:38;15.05;;;6.13;;
77866;SDS011;67271;59.120;37.970;2023-04-28T13:44:04;7.15;;;4.15;;
77866;SDS011;67271;59.120;37.970;2023-04-28T13:46:30;6.25;;;4.45;;
77866;SDS011;67271;59.120;37.970;2023-04-28T13:48:56;7.95;;;4.35;;
77866;SDS011;67271;59.120;37.970;2023-04-28T13:51:22;6.43;;;3.80;;
77866;SDS011;67271;59.120;37.970;2023-04-28T13:53:48;6.72;;;3.55;;
77866;SDS011;67271;59.120;37.970;2023-04-28T13:56:14;3.78;;;2.75;;
77866;SDS011;67271;59.120;37.970;2023-04-28T13:58:40;4.05;;;2.47;;
77866;SDS011;67271;59.120;37.970;2023-04-28T14:01:06;5.05;;;3.17;;
77866;SDS011;67271;59.120;37.970;2023-04-28T14:03:32;4.57;;;3.28;;
77866;SDS011;67271;59.120;37.970;2023-04-28T14:05:58;6.43;;;3.65;;
77866;SDS011;67271;59.120;37.970;2023-04-28T14:08:24;5.22;;;3.70;;
77866;SDS011;67271;59.120;37.970;2023-04-28T14:10:50;5.45;;;3.15;;
77866;SDS011;67271;59.120;37.970;2023-04-28T14:13:17;8.23;;;3.78;;
77866;SDS011;67271;59.120;37.970;2023-04-28T14:15:43;5.93;;;4.05;;
77866;SDS011;67271;59.120;37.970;2023-04-28T14:18:10;5.45;;;3.63;;
77866;SDS011;67271;59.120;37.970;2023-04-28T14:20:37;5.35;;;3.40;;
77866;SDS011;67271;59.120;37.970;2023-04-28T14:23:03;4.63;;;3.00;;
77866;SDS011;67271;59.120;37.970;2023-04-28T14:25:29;6.68;;;3.55;;
77866;SDS011;67271;59.120;37.970;2023-04-28T14:27:55;5.30;;;3.63;;
77866;SDS011;67271;59.120;37.970;2023-04-28T14:30:21;9.23;;;6.38;;
77866;SDS011;67271;59.120;37.970;2023-04-28T14:32:48;5.00;;;3.05;;
77866;SDS011;67271;59.120;37.970;2023-04-28T14:35:14;4.78;;;3.67;;
77866;SDS011;67271;59.120;37.970;2023-04-28T14:37:40;5.68;;;3.70;;
77866;SDS011;67271;59.120;37.970;2023-04-28T14:40:06;6.35;;;3.28;;
77866;SDS011;67271;59.120;37.970;2023-04-28T14:42:33;5.50;;;3.83;;
77866;SDS011;67271;59.120;37.970;2023-04-28T14:45:03;5.75;;;3.78;;
77866;SDS011;67271;59.120;37.970;2023-04-28T14:47:31;5.35;;;3.40;;
77866;SDS011;67271;59.120;37.970;2023-04-28T14:49:57;5.35;;;3.30;;
77866;SDS011;67271;59.120;37.970;2023-04-28T14:52:24;7.70;;;3.03;;
77866;SDS011;67271;59.120;37.970;2023-04-28T14:54:56;9.43;;;3.78;;
77866;SDS011;67271;59.120;37.970;2023-04-28T14:57:23;8.43;;;3.80;;
77866;SDS011;67271;59.120;37.970;2023-04-28T14:59:50;5.93;;;3.30;;
77866;SDS011;67271;59.120;37.970;2023-04-28T15:02:16;6.32;;;3.17;;
77866;SDS011;67271;59.120;37.970;2023-04-28T15:04:44;4.70;;;3.00;;
77866;SDS011;67271;59.120;37.970;2023-04-28T15:07:10;10.18;;;3.30;;
77866;SDS011;67271;59.120;37.970;2023-04-28T15:09:37;5.75;;;2.90;;
77866;SDS011;67271;59.120;37.970;2023-04-28T15:12:03;5.07;;;3.47;;
77866;SDS011;67271;59.120;37.970;2023-04-28T15:14:29;4.65;;;2.80;;